Terminal Aerodrome Forecast
Issued by NWS

Home | Current Version | Previous Version | Graphics & Text | Print | Product List | Glossary On
Versions: 1 2 3 4 5 6 7 8 9 10 11 12 13 14 15 16
000
FTUS43 KMPX 170500
TAFAXN
TAF
KAXN 170538Z 1706/1806 02010KT P6SM SKC
     FM171200 36009KT P6SM SCT020
     FM172000 32009KT P6SM BKN250=

USA.gov is the U.S. government's official web portal to all federal, state and local government web resources and services.